createdAt,value
2023-04-01T00:02:16.978Z,9.23
2023-04-01T00:05:18.540Z,9.27
2023-04-01T00:08:20.010Z,9.52
2023-04-01T00:11:21.938Z,9.50
2023-04-01T00:14:23.328Z,9.49
2023-04-01T00:17:24.827Z,9.55
2023-04-01T00:20:26.669Z,9.35
2023-04-01T00:23:28.125Z,9.47
2023-04-01T00:26:29.558Z,9.51
2023-04-01T00:29:31.581Z,9.24
2023-04-01T00:32:33.163Z,9.19
2023-04-01T00:35:35.621Z,9.43
2023-04-01T00:38:38.342Z,9.40
2023-04-01T00:41:39.947Z,9.04
2023-04-01T00:44:42.243Z,9.07
2023-04-01T00:47:43.872Z,9.06
2023-04-01T00:51:04.781Z,8.84
2023-04-01T00:54:07.737Z,9.35
2023-04-01T00:57:13.644Z,9.06
2023-04-01T01:00:16.778Z,8.89
2023-04-01T01:03:18.703Z,8.78
2023-04-01T01:06:32.174Z,9.16
2023-04-01T01:09:39.692Z,8.84
2023-04-01T01:13:10.210Z,9.10
2023-04-01T01:16:25.120Z,8.84
2023-04-01T01:19:51.606Z,9.31
2023-04-01T01:23:19.878Z,9.00
2023-04-01T01:26:52.966Z,8.89
2023-04-01T01:30:14.574Z,8.73
2023-04-01T01:33:33.259Z,9.07
2023-04-01T01:36:38.478Z,8.92
2023-04-01T01:39:47.058Z,8.65
2023-04-01T01:42:53.018Z,8.94
2023-04-01T01:46:01.044Z,9.00
2023-04-01T01:49:06.044Z,8.66
2023-04-01T01:52:07.756Z,8.87
2023-04-01T01:55:29.947Z,8.67
2023-04-01T01:58:41.408Z,8.70
2023-04-01T02:01:47.641Z,8.33
2023-04-01T02:04:51.345Z,8.37
2023-04-01T02:08:17.264Z,8.72
2023-04-01T02:11:24.945Z,8.57
2023-04-01T02:14:42.953Z,8.56
2023-04-01T02:17:46.889Z,8.66
2023-04-01T02:20:50.146Z,8.47
2023-04-01T02:23:54.945Z,8.84
2023-04-01T02:26:56.394Z,9.09
2023-04-01T02:29:58.824Z,8.99
2023-04-01T02:33:01.275Z,9.08
2023-04-01T02:36:02.857Z,8.99
2023-04-01T02:39:05.544Z,9.07
2023-04-01T02:42:07.102Z,8.86
2023-04-01T02:45:09.516Z,8.95
2023-04-01T02:48:11.183Z,8.54
2023-04-01T02:51:12.626Z,8.71
2023-04-01T02:54:14.416Z,9.08
2023-04-01T02:57:18.337Z,8.84
2023-04-01T03:00:19.958Z,8.75
2023-04-01T03:03:21.624Z,8.87
2023-04-01T03:06:23.138Z,9.20
2023-04-01T03:09:24.634Z,8.99
2023-04-01T03:12:26.138Z,9.25
2023-04-01T03:15:27.738Z,9.22
2023-04-01T03:18:29.595Z,9.27
2023-04-01T03:21:32.415Z,9.00
2023-04-01T03:24:33.828Z,9.01
2023-04-01T03:27:36.609Z,9.55
2023-04-01T03:30:38.107Z,9.19
2023-04-01T03:33:39.606Z,9.30
2023-04-01T03:36:41.069Z,9.34
2023-04-01T03:39:44.497Z,9.20
2023-04-01T03:42:46.086Z,9.22
2023-04-01T03:45:49.768Z,9.16
2023-04-01T03:48:51.172Z,9.10
2023-04-01T03:51:52.794Z,9.43
2023-04-01T03:54:54.467Z,9.03
2023-04-01T03:57:56.237Z,9.09
2023-04-01T04:00:58.030Z,9.33
2023-04-01T04:04:00.211Z,8.98
2023-04-01T04:07:01.737Z,8.94
2023-04-01T04:10:09.430Z,8.86
2023-04-01T04:13:11.094Z,9.22
2023-04-01T04:16:19.725Z,9.12
2023-04-01T04:19:27.739Z,8.88
2023-04-01T04:22:29.325Z,8.84
2023-04-01T04:25:31.168Z,8.87
2023-04-01T04:28:33.424Z,9.10
2023-04-01T04:31:35.157Z,9.16
2023-04-01T04:34:36.741Z,9.20
2023-04-01T04:37:38.269Z,8.97
2023-04-01T04:40:42.229Z,9.11
2023-04-01T04:43:51.052Z,9.10
2023-04-01T04:46:52.590Z,9.15
2023-04-01T04:49:54.086Z,8.91
2023-04-01T04:52:55.767Z,9.11
2023-04-01T04:55:57.681Z,8.94
2023-04-01T04:59:09.542Z,8.85
2023-04-01T05:02:23.687Z,9.18
2023-04-01T05:05:25.407Z,8.89
2023-04-01T05:08:26.999Z,9.10
2023-04-01T05:11:28.562Z,8.67
2023-04-01T05:14:30.865Z,8.80
2023-04-01T05:17:40.340Z,8.79
2023-04-01T05:20:47.699Z,8.71
2023-04-01T05:23:49.586Z,8.66
2023-04-01T05:26:51.334Z,9.27
2023-04-01T05:29:52.927Z,8.83
2023-04-01T05:33:15.709Z,8.78
2023-04-01T05:36:17.576Z,8.91
2023-04-01T05:39:19.206Z,8.62
2023-04-01T05:42:21.482Z,8.93
2023-04-01T05:45:24.719Z,8.63
2023-04-01T05:48:44.559Z,8.89
2023-04-01T05:51:46.251Z,8.57
2023-04-01T05:54:47.793Z,8.78
2023-04-01T05:57:50.466Z,8.84
2023-04-01T06:01:05.851Z,8.95
2023-04-01T06:04:16.380Z,8.73
2023-04-01T06:07:18.891Z,8.73
2023-04-01T06:10:22.166Z,9.01
2023-04-01T06:13:55.626Z,9.07
2023-04-01T06:17:24.050Z,8.94
2023-04-01T06:20:48.706Z,9.00
2023-04-01T06:24:13.917Z,9.06
2023-04-01T06:27:53.948Z,9.52
2023-04-01T06:31:11.929Z,8.96
2023-04-01T06:34:53.469Z,9.21
2023-04-01T06:38:36.429Z,9.26
2023-04-01T06:41:41.222Z,9.20
2023-04-01T06:45:07.715Z,9.06
2023-04-01T06:48:44.270Z,9.20
2023-04-01T06:52:23.739Z,8.88
2023-04-01T06:56:11.606Z,9.02
2023-04-01T06:59:35.936Z,9.29
2023-04-01T07:02:44.155Z,9.10
2023-04-01T07:05:45.883Z,9.12
2023-04-01T07:08:49.770Z,9.31
2023-04-01T07:11:52.866Z,9.15
2023-04-01T07:15:39.427Z,8.85
2023-04-01T07:18:49.305Z,9.31
2023-04-01T07:21:56.162Z,9.08
2023-04-01T07:25:16.621Z,8.93
2023-04-01T07:28:23.113Z,8.99
2023-04-01T07:31:55.581Z,9.15
2023-04-01T07:35:22.259Z,9.60
2023-04-01T07:38:41.620Z,9.22
2023-04-01T07:41:47.854Z,8.86
2023-04-01T07:45:16.812Z,9.21
2023-04-01T07:48:34.044Z,9.42
2023-04-01T07:51:46.471Z,8.88
2023-04-01T07:55:11.034Z,8.91
2023-04-01T07:58:27.939Z,8.98
2023-04-01T08:01:34.736Z,8.93
2023-04-01T08:04:36.404Z,9.11
2023-04-01T08:07:51.331Z,9.43
2023-04-01T08:11:26.289Z,9.34
2023-04-01T08:14:52.165Z,9.00
2023-04-01T08:18:29.240Z,9.16
2023-04-01T08:21:40.086Z,8.75
2023-04-01T08:24:47.576Z,9.13
2023-04-01T08:28:18.768Z,9.08
2023-04-01T08:31:32.372Z,8.84
2023-04-01T08:34:43.250Z,9.01
2023-04-01T08:37:58.524Z,8.92
2023-04-01T08:41:02.421Z,8.99
2023-04-01T08:45:01.507Z,8.85
2023-04-01T08:48:09.601Z,8.94
2023-04-01T08:51:31.221Z,9.19
2023-04-01T08:54:58.565Z,9.03
2023-04-01T08:58:55.923Z,8.93
2023-04-01T09:02:31.734Z,8.99
2023-04-01T09:06:21.603Z,8.88
2023-04-01T09:09:30.307Z,8.63
2023-04-01T09:13:00.030Z,8.68
2023-04-01T09:16:36.604Z,8.87
2023-04-01T09:19:53.125Z,8.92
2023-04-01T09:23:22.312Z,9.14
2023-04-01T09:27:15.639Z,8.93
2023-04-01T09:30:31.750Z,9.05
2023-04-01T09:33:45.276Z,9.10
2023-04-01T09:37:18.739Z,8.60
2023-04-01T09:40:38.367Z,8.92
2023-04-01T09:44:10.526Z,8.71
2023-04-01T09:47:47.269Z,8.79
2023-04-01T09:51:08.011Z,8.76
2023-04-01T09:54:15.739Z,9.00
2023-04-01T09:57:52.789Z,8.74
2023-04-01T10:01:56.752Z,9.09
2023-04-01T10:05:27.595Z,9.13
2023-04-01T10:09:07.082Z,8.88
2023-04-01T10:12:25.974Z,9.01
2023-04-01T10:16:05.262Z,9.01
2023-04-01T10:19:40.817Z,9.05
2023-04-01T10:22:54.655Z,9.20
2023-04-01T10:26:10.733Z,8.92
2023-04-01T10:29:33.757Z,9.15
2023-04-01T10:33:08.674Z,9.04
2023-04-01T10:36:38.057Z,9.15
2023-04-01T10:40:08.134Z,9.33
2023-04-01T10:44:15.721Z,9.43
2023-04-01T10:47:38.345Z,9.25
2023-04-01T10:51:17.970Z,9.15
2023-04-01T10:54:43.951Z,9.07
2023-04-01T10:58:30.644Z,9.12
2023-04-01T11:02:35.594Z,9.13
2023-04-01T11:06:14.690Z,8.82
2023-04-01T11:09:28.292Z,9.19
2023-04-01T11:13:10.962Z,9.28
2023-04-01T11:16:26.001Z,9.31
2023-04-01T11:20:01.068Z,9.04
2023-04-01T11:23:13.674Z,9.36
2023-04-01T11:26:43.545Z,9.61
2023-04-01T11:30:25.933Z,9.23
2023-04-01T11:34:11.120Z,9.18
2023-04-01T11:37:38.082Z,9.09
2023-04-01T11:41:26.522Z,9.15
2023-04-01T11:45:16.601Z,9.33
2023-04-01T11:48:40.875Z,9.61
2023-04-01T11:51:48.380Z,9.36
2023-04-01T11:55:21.044Z,9.47
2023-04-01T11:58:37.363Z,9.56
2023-04-01T12:02:10.070Z,9.30
2023-04-01T12:05:31.155Z,9.03
2023-04-01T12:08:47.639Z,9.40
2023-04-01T12:12:04.207Z,9.82
2023-04-01T12:15:30.982Z,9.76
2023-04-01T12:18:51.068Z,9.75
2023-04-01T12:22:13.207Z,9.44
2023-04-01T12:25:25.971Z,9.43
2023-04-01T12:29:06.983Z,9.40
2023-04-01T12:32:29.094Z,9.48
2023-04-01T12:36:09.658Z,9.44
2023-04-01T12:39:40.376Z,9.53
2023-04-01T12:42:58.071Z,9.54
2023-04-01T12:46:15.078Z,9.66
2023-04-01T12:49:35.071Z,9.88
2023-04-01T12:53:04.137Z,9.70
2023-04-01T12:56:14.174Z,9.66
2023-04-01T12:59:24.565Z,9.72
2023-04-01T13:02:41.203Z,9.58
2023-04-01T13:05:57.676Z,9.74
2023-04-01T13:09:20.927Z,9.68
2023-04-01T13:12:22.351Z,9.73
2023-04-01T13:15:41.336Z,9.67
2023-04-01T13:18:56.759Z,9.48
2023-04-01T13:22:02.263Z,9.69
2023-04-01T13:25:22.472Z,9.76
2023-04-01T13:28:33.304Z,9.65
2023-04-01T13:31:53.406Z,10.02
2023-04-01T13:35:06.027Z,9.87
2023-04-01T13:38:42.000Z,9.52
2023-04-01T13:41:47.271Z,9.87
2023-04-01T13:45:03.650Z,10.07
2023-04-01T13:48:17.325Z,9.89
2023-04-01T13:51:53.167Z,10.08
2023-04-01T13:55:07.711Z,10.04
2023-04-01T13:58:30.002Z,10.03
2023-04-01T14:01:48.903Z,10.02
2023-04-01T14:05:42.150Z,9.93
2023-04-01T14:09:16.067Z,10.13
2023-04-01T14:12:31.377Z,10.17
2023-04-01T14:15:51.570Z,9.94
2023-04-01T14:19:26.231Z,10.12
2023-04-01T14:22:47.577Z,10.13
2023-04-01T14:26:11.037Z,10.10
2023-04-01T14:29:18.516Z,10.27
2023-04-01T14:32:47.878Z,10.29
2023-04-01T14:36:20.105Z,10.27
2023-04-01T14:39:44.033Z,10.09
2023-04-01T14:43:08.186Z,10.38
2023-04-01T14:46:44.345Z,10.56
2023-04-01T14:50:17.715Z,10.35
2023-04-01T14:53:30.170Z,10.55
2023-04-01T14:56:45.812Z,10.68
2023-04-01T14:59:54.475Z,10.49
2023-04-01T15:03:04.759Z,10.66
2023-04-01T15:06:40.454Z,10.66
2023-04-01T15:09:50.826Z,10.64
2023-04-01T15:13:25.608Z,10.57
2023-04-01T15:16:36.238Z,10.43
2023-04-01T15:20:03.129Z,10.54
2023-04-01T15:23:28.795Z,10.64
2023-04-01T15:26:55.210Z,10.64
2023-04-01T15:30:18.992Z,10.63
2023-04-01T15:33:44.839Z,10.73
2023-04-01T15:37:01.301Z,10.72
2023-04-01T15:40:25.931Z,10.58
2023-04-01T15:43:45.334Z,10.69
2023-04-01T15:46:51.078Z,10.52
2023-04-01T15:50:14.438Z,10.68
2023-04-01T15:53:35.007Z,10.91
2023-04-01T15:56:57.779Z,10.91
2023-04-01T16:00:22.903Z,10.84
2023-04-01T16:04:12.240Z,10.75
2023-04-01T16:07:39.592Z,10.81
2023-04-01T16:11:00.130Z,10.96
2023-04-01T16:14:15.341Z,11.02
2023-04-01T16:17:34.884Z,10.98
2023-04-01T16:21:02.528Z,10.66
2023-04-01T16:24:11.178Z,10.77
2023-04-01T16:27:19.891Z,10.87
2023-04-01T16:30:46.972Z,10.86
2023-04-01T16:33:59.682Z,10.97
2023-04-01T16:37:04.857Z,10.88
2023-04-01T16:40:21.205Z,10.75
2023-04-01T16:43:27.859Z,10.48
2023-04-01T16:46:41.242Z,10.55
2023-04-01T16:49:53.304Z,10.40
2023-04-01T16:53:03.654Z,10.25
2023-04-01T16:56:21.766Z,10.55
2023-04-01T16:59:48.498Z,10.36
2023-04-01T17:03:05.393Z,10.50
2023-04-01T17:06:21.476Z,9.95
2023-04-01T17:09:35.470Z,10.48
2023-04-01T17:13:01.511Z,10.18
2023-04-01T17:16:31.109Z,10.22
2023-04-01T17:19:50.909Z,10.42
2023-04-01T17:23:05.134Z,10.42
2023-04-01T17:26:28.685Z,10.64
2023-04-01T17:29:36.340Z,10.46
2023-04-01T17:33:00.812Z,10.35
2023-04-01T17:36:17.705Z,10.58
2023-04-01T17:39:40.390Z,10.51
2023-04-01T17:42:51.712Z,10.68
2023-04-01T17:46:21.508Z,10.61
2023-04-01T17:49:40.932Z,10.64
2023-04-01T17:53:14.936Z,10.51
2023-04-01T17:56:30.772Z,10.29
2023-04-01T17:59:40.417Z,10.18
2023-04-01T18:03:06.983Z,10.18
2023-04-01T18:06:19.687Z,9.98
2023-04-01T18:09:38.545Z,10.29
2023-04-01T18:13:09.436Z,10.33
2023-04-01T18:16:50.639Z,10.16
2023-04-01T18:19:55.251Z,10.11
2023-04-01T18:23:21.635Z,9.36
2023-04-01T18:26:29.531Z,9.69
2023-04-01T18:29:42.429Z,9.61
2023-04-01T18:33:01.947Z,9.43
2023-04-01T18:36:40.078Z,9.52
2023-04-01T18:39:47.335Z,9.69
2023-04-01T18:43:09.797Z,9.46
2023-04-01T18:46:30.436Z,9.52
2023-04-01T18:49:56.461Z,9.45
2023-04-01T18:53:10.976Z,9.08
2023-04-01T18:56:16.313Z,9.23
2023-04-01T18:59:40.457Z,9.47
2023-04-01T19:02:48.918Z,9.41
2023-04-01T19:05:54.600Z,9.40
2023-04-01T19:08:56.573Z,9.34
2023-04-01T19:12:11.103Z,9.28
2023-04-01T19:15:12.648Z,9.21
2023-04-01T19:18:32.136Z,9.34
2023-04-01T19:21:44.496Z,9.19
2023-04-01T19:25:10.401Z,9.44
2023-04-01T19:28:21.593Z,9.39
2023-04-01T19:31:38.325Z,9.42
2023-04-01T19:35:11.695Z,9.65
2023-04-01T19:38:25.309Z,9.07
2023-04-01T19:41:38.270Z,9.21
2023-04-01T19:44:49.717Z,9.15
2023-04-01T19:48:09.433Z,8.99
2023-04-01T19:51:22.980Z,9.10
2023-04-01T19:54:44.269Z,8.90
2023-04-01T19:58:13.153Z,8.76
2023-04-01T20:01:44.092Z,9.00
2023-04-01T20:04:51.794Z,8.82
2023-04-01T20:08:00.437Z,8.57
2023-04-01T20:11:31.292Z,8.68
2023-04-01T20:14:51.167Z,8.72
2023-04-01T20:17:57.491Z,8.09
2023-04-01T20:21:06.307Z,8.47
2023-04-01T20:24:24.650Z,8.59
2023-04-01T20:27:37.296Z,8.67
2023-04-01T20:31:11.660Z,8.67
2023-04-01T20:34:23.938Z,8.29
2023-04-01T20:37:33.168Z,8.64
2023-04-01T20:40:42.371Z,8.29
2023-04-01T20:44:15.546Z,8.45
2023-04-01T20:47:19.851Z,8.45
2023-04-01T20:50:49.145Z,8.56
2023-04-01T20:54:11.973Z,8.51
2023-04-01T20:57:44.496Z,8.57
2023-04-01T21:00:54.138Z,8.54
2023-04-01T21:04:11.737Z,8.41
2023-04-01T21:07:28.329Z,8.59
2023-04-01T21:10:49.931Z,8.43
2023-04-01T21:14:08.299Z,8.23
2023-04-01T21:17:15.711Z,8.50
2023-04-01T21:20:17.281Z,8.64
2023-04-01T21:23:36.381Z,8.54
2023-04-01T21:27:23.278Z,8.39
2023-04-01T21:30:46.183Z,8.44
2023-04-01T21:34:21.721Z,8.11
2023-04-01T21:37:50.290Z,8.22
2023-04-01T21:41:14.961Z,8.07
2023-04-01T21:44:31.804Z,8.49
2023-04-01T21:47:45.243Z,8.71
2023-04-01T21:51:06.774Z,8.50
2023-04-01T21:54:19.056Z,8.32
2023-04-01T21:57:58.482Z,8.54
2023-04-01T22:01:12.267Z,8.40
2023-04-01T22:04:41.610Z,8.45
2023-04-01T22:08:01.776Z,8.24
2023-04-01T22:11:13.335Z,8.34
2023-04-01T22:14:32.467Z,8.43
2023-04-01T22:17:44.232Z,8.25
2023-04-01T22:21:06.071Z,8.39
2023-04-01T22:24:30.570Z,8.46
2023-04-01T22:27:44.840Z,8.23
2023-04-01T22:30:51.818Z,8.43
2023-04-01T22:34:15.318Z,8.57
2023-04-01T22:37:38.309Z,8.56
2023-04-01T22:40:59.499Z,8.57
2023-04-01T22:44:01.385Z,8.43
2023-04-01T22:47:19.872Z,8.33
2023-04-01T22:50:32.826Z,8.12
2023-04-01T22:54:08.262Z,8.23
2023-04-01T22:57:12.967Z,8.30
2023-04-01T23:00:25.142Z,8.22
2023-04-01T23:03:31.496Z,8.00
2023-04-01T23:06:43.833Z,8.27
2023-04-01T23:09:45.442Z,8.36
2023-04-01T23:12:48.382Z,8.35
2023-04-01T23:15:54.272Z,8.47
2023-04-01T23:19:02.667Z,8.52
2023-04-01T23:22:41.905Z,8.56
2023-04-01T23:26:02.252Z,8.47
2023-04-01T23:29:05.178Z,8.38
2023-04-01T23:32:16.879Z,8.51
2023-04-01T23:35:18.406Z,8.29
2023-04-01T23:38:27.233Z,8.49
2023-04-01T23:41:33.535Z,8.63
2023-04-01T23:44:36.963Z,8.58
2023-04-01T23:47:42.011Z,8.64
2023-04-01T23:50:45.264Z,8.79
2023-04-01T23:53:48.435Z,8.57
2023-04-01T23:56:53.333Z,8.73
